sensor_id;sensor_type;location;lat;lon;timestamp;P1;durP1;ratioP1;P2;durP2;ratioP2
85475;SDS011;75880;41.476;22.164;2024-01-30T00:01:51;40.30;;;17.00;;
85475;SDS011;75880;41.476;22.164;2024-01-30T00:04:17;16.98;;;7.57;;
85475;SDS011;75880;41.476;22.164;2024-01-30T00:06:45;35.88;;;20.42;;
85475;SDS011;75880;41.476;22.164;2024-01-30T00:09:11;11.80;;;6.63;;
85475;SDS011;75880;41.476;22.164;2024-01-30T00:11:37;16.15;;;8.93;;
85475;SDS011;75880;41.476;22.164;2024-01-30T00:16:29;5.38;;;2.97;;
85475;SDS011;75880;41.476;22.164;2024-01-30T00:18:54;11.98;;;5.55;;
85475;SDS011;75880;41.476;22.164;2024-01-30T00:21:20;6.88;;;3.88;;
85475;SDS011;75880;41.476;22.164;2024-01-30T00:26:12;10.02;;;6.05;;
85475;SDS011;75880;41.476;22.164;2024-01-30T00:28:40;7.97;;;3.92;;
85475;SDS011;75880;41.476;22.164;2024-01-30T00:31:07;6.45;;;3.70;;
85475;SDS011;75880;41.476;22.164;2024-01-30T00:33:34;17.25;;;8.40;;
85475;SDS011;75880;41.476;22.164;2024-01-30T00:36:00;8.68;;;5.35;;
85475;SDS011;75880;41.476;22.164;2024-01-30T00:38:25;5.97;;;3.60;;
85475;SDS011;75880;41.476;22.164;2024-01-30T00:40:51;4.47;;;2.88;;
85475;SDS011;75880;41.476;22.164;2024-01-30T00:43:17;3.95;;;2.95;;
85475;SDS011;75880;41.476;22.164;2024-01-30T00:45:45;3.92;;;2.30;;
85475;SDS011;75880;41.476;22.164;2024-01-30T00:48:11;5.75;;;2.90;;
85475;SDS011;75880;41.476;22.164;2024-01-30T00:50:37;7.28;;;2.72;;
85475;SDS011;75880;41.476;22.164;2024-01-30T00:53:02;4.20;;;2.90;;
85475;SDS011;75880;41.476;22.164;2024-01-30T00:55:28;6.95;;;2.55;;
85475;SDS011;75880;41.476;22.164;2024-01-30T00:57:54;5.03;;;2.95;;
85475;SDS011;75880;41.476;22.164;2024-01-30T01:00:20;4.40;;;2.75;;
85475;SDS011;75880;41.476;22.164;2024-01-30T01:05:11;4.65;;;2.22;;
85475;SDS011;75880;41.476;22.164;2024-01-30T01:07:37;3.17;;;2.00;;
85475;SDS011;75880;41.476;22.164;2024-01-30T01:10:03;5.55;;;3.10;;
85475;SDS011;75880;41.476;22.164;2024-01-30T01:12:29;5.22;;;2.70;;
85475;SDS011;75880;41.476;22.164;2024-01-30T01:14:55;5.13;;;2.78;;
85475;SDS011;75880;41.476;22.164;2024-01-30T01:17:20;5.30;;;2.80;;
85475;SDS011;75880;41.476;22.164;2024-01-30T01:19:46;6.47;;;2.55;;
85475;SDS011;75880;41.476;22.164;2024-01-30T01:22:12;6.70;;;3.70;;
85475;SDS011;75880;41.476;22.164;2024-01-30T01:24:38;8.30;;;5.07;;
85475;SDS011;75880;41.476;22.164;2024-01-30T01:27:04;5.70;;;3.80;;
85475;SDS011;75880;41.476;22.164;2024-01-30T01:29:31;4.50;;;2.42;;
85475;SDS011;75880;41.476;22.164;2024-01-30T01:31:57;4.40;;;2.80;;
85475;SDS011;75880;41.476;22.164;2024-01-30T01:34:23;6.10;;;3.13;;
85475;SDS011;75880;41.476;22.164;2024-01-30T01:36:49;4.50;;;2.55;;
85475;SDS011;75880;41.476;22.164;2024-01-30T01:39:16;5.00;;;2.92;;
85475;SDS011;75880;41.476;22.164;2024-01-30T01:41:43;6.00;;;3.78;;
85475;SDS011;75880;41.476;22.164;2024-01-30T01:44:09;6.38;;;3.53;;
85475;SDS011;75880;41.476;22.164;2024-01-30T01:46:35;6.13;;;3.70;;
85475;SDS011;75880;41.476;22.164;2024-01-30T01:49:02;7.70;;;3.50;;
85475;SDS011;75880;41.476;22.164;2024-01-30T01:51:30;5.88;;;3.00;;
85475;SDS011;75880;41.476;22.164;2024-01-30T01:53:59;5.70;;;2.90;;
85475;SDS011;75880;41.476;22.164;2024-01-30T01:56:28;7.65;;;3.63;;
85475;SDS011;75880;41.476;22.164;2024-01-30T01:58:55;6.28;;;2.90;;
85475;SDS011;75880;41.476;22.164;2024-01-30T02:01:25;5.15;;;3.13;;
85475;SDS011;75880;41.476;22.164;2024-01-30T02:03:52;5.82;;;3.08;;
85475;SDS011;75880;41.476;22.164;2024-01-30T02:06:21;8.80;;;3.80;;
85475;SDS011;75880;41.476;22.164;2024-01-30T02:08:47;4.72;;;2.70;;
85475;SDS011;75880;41.476;22.164;2024-01-30T02:11:12;4.95;;;2.70;;
85475;SDS011;75880;41.476;22.164;2024-01-30T02:16:06;4.25;;;2.28;;
85475;SDS011;75880;41.476;22.164;2024-01-30T02:18:31;4.78;;;2.58;;
85475;SDS011;75880;41.476;22.164;2024-01-30T02:20:58;6.47;;;2.97;;
85475;SDS011;75880;41.476;22.164;2024-01-30T02:23:29;5.72;;;3.20;;
85475;SDS011;75880;41.476;22.164;2024-01-30T02:25:56;8.05;;;3.83;;
85475;SDS011;75880;41.476;22.164;2024-01-30T02:28:21;5.15;;;3.38;;
85475;SDS011;75880;41.476;22.164;2024-01-30T02:30:50;9.35;;;4.20;;
85475;SDS011;75880;41.476;22.164;2024-01-30T02:33:15;8.10;;;4.03;;
85475;SDS011;75880;41.476;22.164;2024-01-30T02:35:41;7.25;;;3.80;;
85475;SDS011;75880;41.476;22.164;2024-01-30T02:38:07;9.27;;;3.60;;
85475;SDS011;75880;41.476;22.164;2024-01-30T02:40:33;5.93;;;3.22;;
85475;SDS011;75880;41.476;22.164;2024-01-30T02:42:59;7.57;;;2.80;;
85475;SDS011;75880;41.476;22.164;2024-01-30T02:45:25;11.60;;;4.53;;
85475;SDS011;75880;41.476;22.164;2024-01-30T02:47:51;9.95;;;4.38;;
85475;SDS011;75880;41.476;22.164;2024-01-30T02:50:17;9.77;;;3.78;;
85475;SDS011;75880;41.476;22.164;2024-01-30T02:52:43;11.30;;;4.97;;
85475;SDS011;75880;41.476;22.164;2024-01-30T02:55:09;9.65;;;4.40;;
85475;SDS011;75880;41.476;22.164;2024-01-30T02:57:35;15.52;;;5.43;;
85475;SDS011;75880;41.476;22.164;2024-01-30T03:00:01;17.55;;;5.80;;
85475;SDS011;75880;41.476;22.164;2024-01-30T03:02:28;20.98;;;6.43;;
85475;SDS011;75880;41.476;22.164;2024-01-30T03:04:54;9.18;;;4.60;;
85475;SDS011;75880;41.476;22.164;2024-01-30T03:07:20;8.85;;;4.15;;
85475;SDS011;75880;41.476;22.164;2024-01-30T03:09:45;12.13;;;5.22;;
85475;SDS011;75880;41.476;22.164;2024-01-30T03:12:11;10.43;;;4.60;;
85475;SDS011;75880;41.476;22.164;2024-01-30T03:14:37;8.13;;;4.00;;
85475;SDS011;75880;41.476;22.164;2024-01-30T03:17:03;6.38;;;3.58;;
85475;SDS011;75880;41.476;22.164;2024-01-30T03:19:28;10.00;;;3.55;;
85475;SDS011;75880;41.476;22.164;2024-01-30T03:21:54;6.30;;;3.80;;
85475;SDS011;75880;41.476;22.164;2024-01-30T03:24:20;6.10;;;3.50;;
85475;SDS011;75880;41.476;22.164;2024-01-30T03:26:46;8.50;;;3.97;;
85475;SDS011;75880;41.476;22.164;2024-01-30T03:29:11;8.07;;;4.65;;
85475;SDS011;75880;41.476;22.164;2024-01-30T03:31:38;7.05;;;4.20;;
85475;SDS011;75880;41.476;22.164;2024-01-30T03:34:04;7.60;;;4.30;;
85475;SDS011;75880;41.476;22.164;2024-01-30T03:36:30;7.45;;;3.90;;
85475;SDS011;75880;41.476;22.164;2024-01-30T03:38:58;10.05;;;4.78;;
85475;SDS011;75880;41.476;22.164;2024-01-30T03:43:50;8.05;;;4.20;;
85475;SDS011;75880;41.476;22.164;2024-01-30T03:46:16;6.35;;;3.67;;
85475;SDS011;75880;41.476;22.164;2024-01-30T03:48:42;7.70;;;3.58;;
85475;SDS011;75880;41.476;22.164;2024-01-30T03:51:08;8.02;;;4.30;;
85475;SDS011;75880;41.476;22.164;2024-01-30T03:53:34;11.15;;;5.00;;
85475;SDS011;75880;41.476;22.164;2024-01-30T03:56:00;11.60;;;5.55;;
85475;SDS011;75880;41.476;22.164;2024-01-30T03:58:26;11.55;;;4.78;;
85475;SDS011;75880;41.476;22.164;2024-01-30T04:00:52;6.88;;;4.63;;
85475;SDS011;75880;41.476;22.164;2024-01-30T04:03:17;9.10;;;3.92;;
85475;SDS011;75880;41.476;22.164;2024-01-30T04:05:45;13.15;;;5.03;;
85475;SDS011;75880;41.476;22.164;2024-01-30T04:08:10;7.38;;;3.72;;
85475;SDS011;75880;41.476;22.164;2024-01-30T04:10:36;5.15;;;2.90;;
85475;SDS011;75880;41.476;22.164;2024-01-30T04:13:02;6.15;;;3.03;;
85475;SDS011;75880;41.476;22.164;2024-01-30T04:15:28;5.55;;;2.72;;
85475;SDS011;75880;41.476;22.164;2024-01-30T04:17:57;7.38;;;3.20;;
85475;SDS011;75880;41.476;22.164;2024-01-30T04:20:25;31.83;;;13.55;;
85475;SDS011;75880;41.476;22.164;2024-01-30T04:22:51;17.58;;;10.73;;
85475;SDS011;75880;41.476;22.164;2024-01-30T04:25:17;14.77;;;7.55;;
85475;SDS011;75880;41.476;22.164;2024-01-30T04:27:42;15.52;;;7.68;;
85475;SDS011;75880;41.476;22.164;2024-01-30T04:30:08;12.75;;;6.53;;
85475;SDS011;75880;41.476;22.164;2024-01-30T04:32:35;13.20;;;6.07;;
85475;SDS011;75880;41.476;22.164;2024-01-30T04:37:26;7.13;;;4.35;;
85475;SDS011;75880;41.476;22.164;2024-01-30T04:39:53;10.98;;;6.03;;
85475;SDS011;75880;41.476;22.164;2024-01-30T04:42:18;8.57;;;4.43;;
85475;SDS011;75880;41.476;22.164;2024-01-30T04:44:44;8.35;;;4.60;;
85475;SDS011;75880;41.476;22.164;2024-01-30T04:47:10;9.05;;;4.35;;
85475;SDS011;75880;41.476;22.164;2024-01-30T04:49:40;9.25;;;5.53;;
85475;SDS011;75880;41.476;22.164;2024-01-30T04:52:06;6.53;;;3.47;;
85475;SDS011;75880;41.476;22.164;2024-01-30T04:54:34;10.75;;;4.88;;
85475;SDS011;75880;41.476;22.164;2024-01-30T04:57:00;9.30;;;5.45;;
85475;SDS011;75880;41.476;22.164;2024-01-30T04:59:26;22.23;;;11.52;;
85475;SDS011;75880;41.476;22.164;2024-01-30T05:01:52;12.65;;;6.90;;
85475;SDS011;75880;41.476;22.164;2024-01-30T05:04:18;16.08;;;6.18;;
85475;SDS011;75880;41.476;22.164;2024-01-30T05:06:43;12.63;;;6.25;;
85475;SDS011;75880;41.476;22.164;2024-01-30T05:09:09;13.18;;;5.38;;
85475;SDS011;75880;41.476;22.164;2024-01-30T05:11:39;15.38;;;7.20;;
85475;SDS011;75880;41.476;22.164;2024-01-30T05:14:06;9.68;;;5.45;;
85475;SDS011;75880;41.476;22.164;2024-01-30T05:16:32;12.32;;;5.95;;
85475;SDS011;75880;41.476;22.164;2024-01-30T05:18:58;10.20;;;5.50;;
85475;SDS011;75880;41.476;22.164;2024-01-30T05:21:24;13.85;;;6.57;;
85475;SDS011;75880;41.476;22.164;2024-01-30T05:23:50;11.45;;;5.30;;
85475;SDS011;75880;41.476;22.164;2024-01-30T05:26:16;10.27;;;4.70;;
85475;SDS011;75880;41.476;22.164;2024-01-30T05:28:42;8.57;;;5.25;;
85475;SDS011;75880;41.476;22.164;2024-01-30T05:31:10;9.23;;;4.95;;
85475;SDS011;75880;41.476;22.164;2024-01-30T05:33:36;11.43;;;4.78;;
85475;SDS011;75880;41.476;22.164;2024-01-30T05:36:02;8.35;;;3.88;;
85475;SDS011;75880;41.476;22.164;2024-01-30T05:38:28;11.35;;;5.05;;
85475;SDS011;75880;41.476;22.164;2024-01-30T05:40:54;9.65;;;4.05;;
85475;SDS011;75880;41.476;22.164;2024-01-30T05:45:46;7.72;;;4.32;;
85475;SDS011;75880;41.476;22.164;2024-01-30T05:48:11;5.32;;;2.80;;
85475;SDS011;75880;41.476;22.164;2024-01-30T05:50:37;6.28;;;3.00;;
85475;SDS011;75880;41.476;22.164;2024-01-30T05:53:03;4.32;;;2.72;;
85475;SDS011;75880;41.476;22.164;2024-01-30T05:55:29;7.13;;;3.42;;
85475;SDS011;75880;41.476;22.164;2024-01-30T05:57:55;5.53;;;2.95;;
85475;SDS011;75880;41.476;22.164;2024-01-30T06:00:21;5.85;;;3.35;;
85475;SDS011;75880;41.476;22.164;2024-01-30T06:02:47;9.23;;;5.13;;
85475;SDS011;75880;41.476;22.164;2024-01-30T06:05:12;9.05;;;4.65;;
85475;SDS011;75880;41.476;22.164;2024-01-30T06:07:38;7.97;;;3.70;;
85475;SDS011;75880;41.476;22.164;2024-01-30T06:10:04;10.73;;;5.65;;
85475;SDS011;75880;41.476;22.164;2024-01-30T06:14:56;8.68;;;4.28;;
85475;SDS011;75880;41.476;22.164;2024-01-30T06:17:22;12.63;;;5.75;;
85475;SDS011;75880;41.476;22.164;2024-01-30T06:19:49;11.93;;;6.85;;
85475;SDS011;75880;41.476;22.164;2024-01-30T06:22:15;11.05;;;5.28;;
85475;SDS011;75880;41.476;22.164;2024-01-30T06:24:41;7.90;;;4.00;;
85475;SDS011;75880;41.476;22.164;2024-01-30T06:27:06;9.10;;;3.85;;
85475;SDS011;75880;41.476;22.164;2024-01-30T06:29:32;8.60;;;4.53;;
85475;SDS011;75880;41.476;22.164;2024-01-30T06:31:58;8.77;;;4.55;;
85475;SDS011;75880;41.476;22.164;2024-01-30T06:34:24;10.95;;;6.05;;
85475;SDS011;75880;41.476;22.164;2024-01-30T06:36:51;9.95;;;6.28;;
85475;SDS011;75880;41.476;22.164;2024-01-30T06:39:17;13.10;;;8.20;;
85475;SDS011;75880;41.476;22.164;2024-01-30T06:41:43;15.77;;;7.65;;
85475;SDS011;75880;41.476;22.164;2024-01-30T06:44:08;20.70;;;11.27;;
85475;SDS011;75880;41.476;22.164;2024-01-30T06:46:35;21.00;;;11.00;;
85475;SDS011;75880;41.476;22.164;2024-01-30T06:49:00;20.70;;;11.13;;
85475;SDS011;75880;41.476;22.164;2024-01-30T06:51:26;23.40;;;11.05;;
85475;SDS011;75880;41.476;22.164;2024-01-30T06:53:52;18.10;;;9.95;;
85475;SDS011;75880;41.476;22.164;2024-01-30T06:56:18;16.15;;;9.15;;
85475;SDS011;75880;41.476;22.164;2024-01-30T06:58:47;66.10;;;26.33;;
85475;SDS011;75880;41.476;22.164;2024-01-30T07:01:14;74.93;;;28.95;;
85475;SDS011;75880;41.476;22.164;2024-01-30T07:03:40;15.73;;;8.60;;
85475;SDS011;75880;41.476;22.164;2024-01-30T07:06:05;22.90;;;12.38;;
85475;SDS011;75880;41.476;22.164;2024-01-30T07:08:31;24.30;;;11.27;;
85475;SDS011;75880;41.476;22.164;2024-01-30T07:10:57;12.50;;;6.43;;
85475;SDS011;75880;41.476;22.164;2024-01-30T07:13:23;8.27;;;4.38;;
85475;SDS011;75880;41.476;22.164;2024-01-30T07:15:49;9.40;;;5.47;;
85475;SDS011;75880;41.476;22.164;2024-01-30T07:18:14;11.88;;;5.60;;
85475;SDS011;75880;41.476;22.164;2024-01-30T07:20:40;10.27;;;5.00;;
85475;SDS011;75880;41.476;22.164;2024-01-30T07:23:12;10.02;;;6.45;;
85475;SDS011;75880;41.476;22.164;2024-01-30T07:25:40;12.63;;;6.68;;
85475;SDS011;75880;41.476;22.164;2024-01-30T07:28:07;17.77;;;7.85;;
85475;SDS011;75880;41.476;22.164;2024-01-30T07:30:37;25.58;;;10.02;;
85475;SDS011;75880;41.476;22.164;2024-01-30T07:33:04;20.20;;;8.30;;
85475;SDS011;75880;41.476;22.164;2024-01-30T07:35:30;13.65;;;7.20;;
85475;SDS011;75880;41.476;22.164;2024-01-30T07:37:55;21.05;;;10.77;;
85475;SDS011;75880;41.476;22.164;2024-01-30T07:40:22;35.90;;;15.85;;
85475;SDS011;75880;41.476;22.164;2024-01-30T07:42:49;45.17;;;17.20;;
85475;SDS011;75880;41.476;22.164;2024-01-30T07:47:41;24.55;;;10.63;;
85475;SDS011;75880;41.476;22.164;2024-01-30T07:50:10;25.23;;;11.93;;
85475;SDS011;75880;41.476;22.164;2024-01-30T07:55:02;23.10;;;11.18;;
85475;SDS011;75880;41.476;22.164;2024-01-30T07:57:29;22.45;;;11.02;;
85475;SDS011;75880;41.476;22.164;2024-01-30T08:02:20;15.35;;;8.38;;
85475;SDS011;75880;41.476;22.164;2024-01-30T08:04:46;15.07;;;8.63;;
85475;SDS011;75880;41.476;22.164;2024-01-30T08:07:14;12.52;;;6.57;;
85475;SDS011;75880;41.476;22.164;2024-01-30T08:12:05;13.52;;;6.70;;
85475;SDS011;75880;41.476;22.164;2024-01-30T08:16:57;15.10;;;6.60;;
85475;SDS011;75880;41.476;22.164;2024-01-30T08:21:48;12.65;;;6.47;;
85475;SDS011;75880;41.476;22.164;2024-01-30T08:24:16;14.05;;;7.18;;
85475;SDS011;75880;41.476;22.164;2024-01-30T08:26:42;14.88;;;7.82;;
85475;SDS011;75880;41.476;22.164;2024-01-30T08:31:34;11.48;;;5.95;;
85475;SDS011;75880;41.476;22.164;2024-01-30T08:36:25;9.32;;;5.05;;
85475;SDS011;75880;41.476;22.164;2024-01-30T08:38:54;11.20;;;5.32;;
85475;SDS011;75880;41.476;22.164;2024-01-30T08:41:19;11.15;;;6.10;;
85475;SDS011;75880;41.476;22.164;2024-01-30T08:43:45;9.15;;;4.97;;
85475;SDS011;75880;41.476;22.164;2024-01-30T08:46:13;8.77;;;5.13;;
85475;SDS011;75880;41.476;22.164;2024-01-30T08:48:42;7.47;;;4.50;;
85475;SDS011;75880;41.476;22.164;2024-01-30T08:51:08;8.55;;;4.85;;
85475;SDS011;75880;41.476;22.164;2024-01-30T08:53:34;8.90;;;4.53;;
85475;SDS011;75880;41.476;22.164;2024-01-30T08:56:01;15.38;;;5.35;;
85475;SDS011;75880;41.476;22.164;2024-01-30T08:58:28;9.00;;;4.55;;
85475;SDS011;75880;41.476;22.164;2024-01-30T09:00:54;9.60;;;4.80;;
85475;SDS011;75880;41.476;22.164;2024-01-30T09:03:19;8.32;;;4.45;;
85475;SDS011;75880;41.476;22.164;2024-01-30T09:05:45;8.05;;;4.75;;
85475;SDS011;75880;41.476;22.164;2024-01-30T09:10:36;10.20;;;4.60;;
85475;SDS011;75880;41.476;22.164;2024-01-30T09:13:02;8.80;;;4.63;;
85475;SDS011;75880;41.476;22.164;2024-01-30T09:15:28;9.27;;;4.53;;
85475;SDS011;75880;41.476;22.164;2024-01-30T09:20:19;5.95;;;3.58;;
85475;SDS011;75880;41.476;22.164;2024-01-30T09:22:45;7.10;;;3.80;;
85475;SDS011;75880;41.476;22.164;2024-01-30T09:25:11;12.32;;;6.85;;
85475;SDS011;75880;41.476;22.164;2024-01-30T09:27:36;5.22;;;2.72;;
85475;SDS011;75880;41.476;22.164;2024-01-30T09:30:02;15.68;;;3.95;;
85475;SDS011;75880;41.476;22.164;2024-01-30T09:32:28;7.68;;;2.90;;
85475;SDS011;75880;41.476;22.164;2024-01-30T09:34:53;4.40;;;2.55;;
85475;SDS011;75880;41.476;22.164;2024-01-30T09:37:19;5.30;;;2.00;;
85475;SDS011;75880;41.476;22.164;2024-01-30T09:39:45;6.75;;;3.65;;
85475;SDS011;75880;41.476;22.164;2024-01-30T09:42:14;4.40;;;2.40;;
85475;SDS011;75880;41.476;22.164;2024-01-30T09:44:43;5.97;;;2.70;;
85475;SDS011;75880;41.476;22.164;2024-01-30T09:47:09;4.78;;;2.42;;
85475;SDS011;75880;41.476;22.164;2024-01-30T09:49:35;6.70;;;2.45;;
85475;SDS011;75880;41.476;22.164;2024-01-30T09:52:03;3.47;;;1.92;;
85475;SDS011;75880;41.476;22.164;2024-01-30T09:54:31;5.47;;;2.30;;
85475;SDS011;75880;41.476;22.164;2024-01-30T09:56:57;3.72;;;2.08;;
85475;SDS011;75880;41.476;22.164;2024-01-30T09:59:23;5.28;;;2.78;;
85475;SDS011;75880;41.476;22.164;2024-01-30T10:01:50;5.78;;;2.25;;
85475;SDS011;75880;41.476;22.164;2024-01-30T10:04:16;6.38;;;3.25;;
85475;SDS011;75880;41.476;22.164;2024-01-30T10:06:42;3.50;;;2.10;;
85475;SDS011;75880;41.476;22.164;2024-01-30T10:09:08;3.67;;;2.00;;
85475;SDS011;75880;41.476;22.164;2024-01-30T10:11:35;3.65;;;2.10;;
85475;SDS011;75880;41.476;22.164;2024-01-30T10:14:01;3.58;;;2.13;;
85475;SDS011;75880;41.476;22.164;2024-01-30T10:16:27;3.83;;;1.88;;
85475;SDS011;75880;41.476;22.164;2024-01-30T10:18:53;8.13;;;2.50;;
85475;SDS011;75880;41.476;22.164;2024-01-30T10:21:19;4.38;;;2.20;;
85475;SDS011;75880;41.476;22.164;2024-01-30T10:23:44;4.80;;;2.85;;
85475;SDS011;75880;41.476;22.164;2024-01-30T10:26:10;3.63;;;2.17;;
85475;SDS011;75880;41.476;22.164;2024-01-30T10:28:36;3.78;;;2.13;;
85475;SDS011;75880;41.476;22.164;2024-01-30T10:31:02;3.78;;;2.15;;
85475;SDS011;75880;41.476;22.164;2024-01-30T10:33:31;10.07;;;2.38;;
85475;SDS011;75880;41.476;22.164;2024-01-30T10:36:01;3.17;;;1.80;;
85475;SDS011;75880;41.476;22.164;2024-01-30T10:38:28;3.28;;;1.75;;
85475;SDS011;75880;41.476;22.164;2024-01-30T10:40:59;4.45;;;2.20;;
85475;SDS011;75880;41.476;22.164;2024-01-30T10:43:32;3.97;;;2.30;;
85475;SDS011;75880;41.476;22.164;2024-01-30T10:46:09;3.78;;;2.10;;
85475;SDS011;75880;41.476;22.164;2024-01-30T10:48:42;3.92;;;1.85;;
85475;SDS011;75880;41.476;22.164;2024-01-30T10:51:14;3.72;;;1.83;;
85475;SDS011;75880;41.476;22.164;2024-01-30T10:53:40;4.80;;;2.28;;
85475;SDS011;75880;41.476;22.164;2024-01-30T10:56:08;3.50;;;2.28;;
85475;SDS011;75880;41.476;22.164;2024-01-30T10:58:36;6.90;;;3.63;;
85475;SDS011;75880;41.476;22.164;2024-01-30T11:01:03;4.35;;;1.95;;
85475;SDS011;75880;41.476;22.164;2024-01-30T11:03:29;4.88;;;2.40;;
85475;SDS011;75880;41.476;22.164;2024-01-30T11:05:59;4.35;;;2.75;;
85475;SDS011;75880;41.476;22.164;2024-01-30T11:08:25;4.75;;;2.28;;
85475;SDS011;75880;41.476;22.164;2024-01-30T11:10:57;9.07;;;3.50;;
85475;SDS011;75880;41.476;22.164;2024-01-30T11:13:30;6.35;;;3.08;;
85475;SDS011;75880;41.476;22.164;2024-01-30T11:16:05;12.25;;;3.85;;
85475;SDS011;75880;41.476;22.164;2024-01-30T11:18:32;5.93;;;3.05;;
85475;SDS011;75880;41.476;22.164;2024-01-30T11:20:59;8.60;;;4.28;;
85475;SDS011;75880;41.476;22.164;2024-01-30T11:23:27;5.60;;;2.58;;
85475;SDS011;75880;41.476;22.164;2024-01-30T11:25:54;6.20;;;2.88;;
85475;SDS011;75880;41.476;22.164;2024-01-30T11:28:21;5.15;;;2.72;;
85475;SDS011;75880;41.476;22.164;2024-01-30T11:30:47;8.07;;;3.17;;
85475;SDS011;75880;41.476;22.164;2024-01-30T11:33:26;3.90;;;1.95;;
85475;SDS011;75880;41.476;22.164;2024-01-30T11:35:56;3.80;;;2.10;;
85475;SDS011;75880;41.476;22.164;2024-01-30T11:38:24;6.60;;;2.40;;
85475;SDS011;75880;41.476;22.164;2024-01-30T11:40:52;10.65;;;2.92;;
85475;SDS011;75880;41.476;22.164;2024-01-30T11:43:20;3.45;;;2.17;;
85475;SDS011;75880;41.476;22.164;2024-01-30T11:45:46;3.50;;;2.20;;
85475;SDS011;75880;41.476;22.164;2024-01-30T11:48:12;3.88;;;2.20;;
85475;SDS011;75880;41.476;22.164;2024-01-30T11:50:38;3.97;;;1.98;;
85475;SDS011;75880;41.476;22.164;2024-01-30T11:53:05;4.15;;;2.58;;
85475;SDS011;75880;41.476;22.164;2024-01-30T11:55:32;3.10;;;2.03;;
85475;SDS011;75880;41.476;22.164;2024-01-30T11:57:58;5.32;;;2.88;;
85475;SDS011;75880;41.476;22.164;2024-01-30T12:00:24;6.30;;;3.65;;
85475;SDS011;75880;41.476;22.164;2024-01-30T12:02:51;5.95;;;2.63;;
85475;SDS011;75880;41.476;22.164;2024-01-30T12:05:25;3.15;;;2.20;;
85475;SDS011;75880;41.476;22.164;2024-01-30T12:07:52;8.25;;;2.60;;
85475;SDS011;75880;41.476;22.164;2024-01-30T12:10:18;2.85;;;1.85;;
85475;SDS011;75880;41.476;22.164;2024-01-30T12:12:45;6.53;;;3.50;;
85475;SDS011;75880;41.476;22.164;2024-01-30T12:15:12;64.50;;;10.00;;
85475;SDS011;75880;41.476;22.164;2024-01-30T12:17:38;9.48;;;3.80;;
85475;SDS011;75880;41.476;22.164;2024-01-30T12:22:31;3.47;;;1.70;;
85475;SDS011;75880;41.476;22.164;2024-01-30T12:25:08;4.07;;;2.08;;
85475;SDS011;75880;41.476;22.164;2024-01-30T12:27:34;3.67;;;2.22;;
85475;SDS011;75880;41.476;22.164;2024-01-30T12:30:01;3.17;;;2.00;;
85475;SDS011;75880;41.476;22.164;2024-01-30T12:32:30;3.05;;;1.83;;
85475;SDS011;75880;41.476;22.164;2024-01-30T12:34:56;3.58;;;1.80;;
85475;SDS011;75880;41.476;22.164;2024-01-30T12:37:22;2.55;;;1.80;;
85475;SDS011;75880;41.476;22.164;2024-01-30T12:39:50;3.72;;;2.35;;
85475;SDS011;75880;41.476;22.164;2024-01-30T12:42:19;6.82;;;2.47;;
85475;SDS011;75880;41.476;22.164;2024-01-30T12:44:46;4.38;;;2.38;;
85475;SDS011;75880;41.476;22.164;2024-01-30T12:47:13;18.35;;;7.97;;
85475;SDS011;75880;41.476;22.164;2024-01-30T12:49:42;7.88;;;3.80;;
85475;SDS011;75880;41.476;22.164;2024-01-30T12:52:10;15.45;;;6.60;;
85475;SDS011;75880;41.476;22.164;2024-01-30T12:54:37;19.30;;;6.13;;
85475;SDS011;75880;41.476;22.164;2024-01-30T12:57:03;5.18;;;2.75;;
85475;SDS011;75880;41.476;22.164;2024-01-30T12:59:30;9.00;;;4.13;;
85475;SDS011;75880;41.476;22.164;2024-01-30T13:01:56;5.32;;;3.08;;
85475;SDS011;75880;41.476;22.164;2024-01-30T13:04:22;4.63;;;2.70;;
85475;SDS011;75880;41.476;22.164;2024-01-30T13:06:48;2.63;;;1.70;;
85475;SDS011;75880;41.476;22.164;2024-01-30T13:09:14;8.85;;;4.50;;
85475;SDS011;75880;41.476;22.164;2024-01-30T13:11:40;18.00;;;6.95;;
85475;SDS011;75880;41.476;22.164;2024-01-30T13:14:06;5.85;;;2.30;;
85475;SDS011;75880;41.476;22.164;2024-01-30T13:16:32;15.15;;;3.30;;
85475;SDS011;75880;41.476;22.164;2024-01-30T13:18:58;3.63;;;2.00;;
85475;SDS011;75880;41.476;22.164;2024-01-30T13:21:23;5.18;;;2.50;;
85475;SDS011;75880;41.476;22.164;2024-01-30T13:23:49;4.53;;;2.33;;
85475;SDS011;75880;41.476;22.164;2024-01-30T13:26:18;5.20;;;1.98;;
85475;SDS011;75880;41.476;22.164;2024-01-30T13:28:44;5.63;;;3.05;;
85475;SDS011;75880;41.476;22.164;2024-01-30T13:31:09;4.18;;;2.20;;
85475;SDS011;75880;41.476;22.164;2024-01-30T13:33:35;4.07;;;2.13;;
85475;SDS011;75880;41.476;22.164;2024-01-30T13:36:00;5.05;;;2.55;;
85475;SDS011;75880;41.476;22.164;2024-01-30T13:38:26;4.63;;;1.90;;
85475;SDS011;75880;41.476;22.164;2024-01-30T13:40:52;3.47;;;1.90;;
85475;SDS011;75880;41.476;22.164;2024-01-30T13:43:17;3.35;;;1.90;;
85475;SDS011;75880;41.476;22.164;2024-01-30T13:45:43;2.63;;;1.65;;
85475;SDS011;75880;41.476;22.164;2024-01-30T13:48:09;3.80;;;2.30;;
85475;SDS011;75880;41.476;22.164;2024-01-30T13:50:34;6.85;;;3.45;;
85475;SDS011;75880;41.476;22.164;2024-01-30T13:53:01;6.22;;;3.25;;
85475;SDS011;75880;41.476;22.164;2024-01-30T13:55:28;4.78;;;2.60;;
85475;SDS011;75880;41.476;22.164;2024-01-30T13:57:53;6.97;;;4.05;;
85475;SDS011;75880;41.476;22.164;2024-01-30T14:00:20;4.80;;;3.20;;
85475;SDS011;75880;41.476;22.164;2024-01-30T14:02:47;5.28;;;2.47;;
85475;SDS011;75880;41.476;22.164;2024-01-30T14:05:13;3.45;;;1.83;;
85475;SDS011;75880;41.476;22.164;2024-01-30T14:07:39;3.85;;;2.00;;
85475;SDS011;75880;41.476;22.164;2024-01-30T14:10:05;4.63;;;3.00;;
85475;SDS011;75880;41.476;22.164;2024-01-30T14:12:32;3.28;;;1.80;;
85475;SDS011;75880;41.476;22.164;2024-01-30T14:14:57;3.88;;;2.17;;
85475;SDS011;75880;41.476;22.164;2024-01-30T14:17:23;3.75;;;2.22;;
85475;SDS011;75880;41.476;22.164;2024-01-30T14:19:49;18.85;;;4.57;;
85475;SDS011;75880;41.476;22.164;2024-01-30T14:22:15;5.90;;;2.50;;
85475;SDS011;75880;41.476;22.164;2024-01-30T14:24:40;12.25;;;2.63;;
85475;SDS011;75880;41.476;22.164;2024-01-30T14:27:06;4.43;;;2.05;;
85475;SDS011;75880;41.476;22.164;2024-01-30T14:29:33;26.23;;;4.07;;
85475;SDS011;75880;41.476;22.164;2024-01-30T14:31:59;3.28;;;2.17;;
85475;SDS011;75880;41.476;22.164;2024-01-30T14:34:25;4.05;;;2.70;;
85475;SDS011;75880;41.476;22.164;2024-01-30T14:36:50;3.90;;;2.53;;
85475;SDS011;75880;41.476;22.164;2024-01-30T14:39:16;6.28;;;3.03;;
85475;SDS011;75880;41.476;22.164;2024-01-30T14:41:43;4.65;;;2.50;;
85475;SDS011;75880;41.476;22.164;2024-01-30T14:44:09;7.35;;;3.53;;
85475;SDS011;75880;41.476;22.164;2024-01-30T14:46:35;42.90;;;6.97;;
85475;SDS011;75880;41.476;22.164;2024-01-30T14:49:02;5.88;;;2.33;;
85475;SDS011;75880;41.476;22.164;2024-01-30T14:51:33;6.97;;;2.20;;
85475;SDS011;75880;41.476;22.164;2024-01-30T14:53:59;20.17;;;5.13;;
85475;SDS011;75880;41.476;22.164;2024-01-30T14:56:25;11.85;;;5.10;;
85475;SDS011;75880;41.476;22.164;2024-01-30T14:58:52;5.22;;;2.88;;
85475;SDS011;75880;41.476;22.164;2024-01-30T15:01:18;8.25;;;2.30;;
85475;SDS011;75880;41.476;22.164;2024-01-30T15:03:44;7.20;;;2.90;;
85475;SDS011;75880;41.476;22.164;2024-01-30T15:06:13;4.68;;;3.13;;
85475;SDS011;75880;41.476;22.164;2024-01-30T15:08:39;4.22;;;2.40;;
85475;SDS011;75880;41.476;22.164;2024-01-30T15:11:08;6.55;;;3.17;;
85475;SDS011;75880;41.476;22.164;2024-01-30T15:13:34;9.70;;;3.80;;